Westport, CT (06880)

11:10 AM EDT on April 21, 2015 (GMT -0400)
Wild Rose Manor | | Change Station
CLOSE
Current Station
Personal Weather Station
Location: Westport, CT
Elevation: 89 ft
Nearby Weather Stations

Elev 89 ft 41.15 °N, 73.36 °W | Updated 2 seconds ago

Overcast
Overcast
59.5 °F
Feels Like 59.5 °F
N
3.1
Wind Variable Wind from NW
Gusts 6.0 mph

Today
High -- | Low -- °F
--% Chance of Precip.
Yesterday
High -- | Low -- °F
Precip. -- in
6:05 AM 7:39 PM
Waxing Crescent, 11% visible
Pressure 29.62 in
Visibility 10.0 miles
Clouds Mostly Cloudy 3000 ft
Dew Point 51 °F
Humidity 73%
Rainfall 0.30 in
Snow Depth Not available.
UV 4 out of 12
Pollen 6.00 out of 12
Air Quality Not available.
Flu Activity Widespread
METAR KBDR 211452Z 24007KT 10SM BKN030 16/11 A2962 RMK AO2 RAB16E35 SLP030 P0000 60000 T01610111 51019

More Conditions Fewer Conditions

Pressure 29.62 in
Visibility 10.0 miles
Clouds Mostly Cloudy 3000 ft
Dew Point 51 °F
Humidity 73%
Rainfall 0.30 in
Snow Depth Not available.
UV 4 out of 12
Pollen 6.00 out of 12
Air Quality Not available.
Flu Activity Widespread
METAR KBDR 211452Z 24007KT 10SM BKN030 16/11 A2962 RMK AO2 RAB16E35 SLP030 P0000 60000 T01610111 51019

More Conditions Fewer Conditions

Nowcast | as of 10:07 am EDT on April 21, 2015

At 1006 am EDT...Doppler radar indicated a line of showers...along a broken line extending from Heritage Hills to Rocky Point moving northeast at 40 mph. These showers will be near... Danbury around 1025 am EDT. Bethel around 1030 am EDT. Newtown around 1035 am EDT. Southbury and Heritage Village around 1045 am EDT. Clinton around 1050 am EDT. Westbrook and Westbrook center around 1055 am EDT. Waterbury...Old Saybrook and Old Saybrook center around 1100 am EDT. Other locations impacted by these showers include Peach Lake... golden's bridge...Easton...Oxford...Deep River...Madison...Essex... Higganum...Ansonia and Brewster Hill. Mainly a brief period of light to moderate rain can be expected with this activity.

×

10-Day Weather Forecast

Almanac

Astronomy

Apr. 21, 2015 Rise Set
Actual Time
Civil Twilight
Nautical Twilight
Astronomical Twilight
Moon
Length of Visible Light
Length of Day
Tomorrow will be .
, % of the Moon is Illuminated

Today's Extremes

State Highs State Lows

Community

WunderPhotos

Upload Photos

1,815,419 photos uploaded!

WunderBlogs® & News

Nearby

Air Quality

  Air Quality AQ Index Pollutant
Not available.

Snow Depth

Station Depth Elevation

Earthquake Activity

City Distance Mag. Time & Date
Minimum magnitude displayed is 2.5.

Coastal Water Temperatures

Place Temperature

Stations

Nearby Weather Stations

Station Location Temp. Windchill Dew Point Humidity Wind Precip. Elev Updated Type